Fish Camp, CA

12:40 PM PDT on September 20, 2014 (GMT -0700)
Merced Municipal-Macready | Change Station
CLOSE
Current Station
Airport
Location: Merced,
Elevation: 154 ft
Nearby Weather Stations

Elev 154 ft 37.28 °N, 120.51 °W | Updated 47 minutes ago

Clear
Clear
84 °F
Feels Like 83 °F
N
7
Wind Variable Wind from NNW

Today
High -- | Low -- °F
--% Chance of Precip.
Yesterday
High -- | Low -- °F
Precip. -- in
6:44 AM 6:58 PM
Waning Crescent, 11% visible
Pressure 29.89 in
Visibility 10.0 miles
Clouds Clear
Heat Index 83 °F
Dew Point 54 °F
Humidity 35%
Rainfall 0.00 in
Snow Depth 0 in , 0 in , 0 in
UV 8 out of 12
Pollen 6.20 out of 12
Air Quality Not available.
Flu Activity Not available.
METAR KMCE 201853Z AUTO 34006KT 10SM CLR 29/12 A2989 RMK AO2 SLP120 T02890122

More Conditions Fewer Conditions

Pressure 29.89 in
Visibility 10.0 miles
Clouds Clear
Heat Index 83 °F
Dew Point 54 °F
Humidity 35%
Rainfall 0.00 in
Snow Depth 0 in , 0 in , 0 in
UV 8 out of 12
Pollen 6.20 out of 12
Air Quality Not available.
Flu Activity Not available.
METAR KMCE 201853Z AUTO 34006KT 10SM CLR 29/12 A2989 RMK AO2 SLP120 T02890122

More Conditions Fewer Conditions

10-Day Weather Forecast

Almanac

Astronomy

Sep. 20, 2014 Rise Set
Actual Time 6:44 AM PDT 6:58 PM PDT
Civil Twilight 6:18 AM PDT 7:24 PM PDT
Nautical Twilight 5:48 AM PDT 7:55 PM PDT
Astronomical Twilight 5:16 AM PDT 8:26 PM PDT
Moon 3:31 AM PDT 5:02 PM PDT
Length of Visible Light 13h 05m
Length of Day
12h 13m
Tomorrow will be 2m 23s shorter.
Waning Crescent, 11% of the Moon is Illuminated
Today
Waning Crescent
Sep 24
New
Oct 1
First Quarter
Oct 8
Full
Oct 15
Last Quarter

Today's Extremes

State Highs State Lows

Community

WunderPhotos

Upload Photos

1,754,925 photos uploaded!

WunderBlogs® & News

Nearby

Snow Depth

Station Depth Elevation
Leavitt Meadows 0 in 7200 ft
Adin Mountain 0 in 6200 ft
Burnside Lake 0 in 8139 ft
Summit Meadow 0 in 9122 ft
Rubicon #2 0 in 7500 ft

Earthquake Activity

City Distance Mag. Time & Date
Inyokern, California 139 miles 3.1 5:33 PM PDT
2014-09-19
Gabbs, Nevada 132 miles 3.3 4:37 AM PDT
2014-09-19
Corcoran, California 97 miles 2.9 3:59 PM PDT
2014-09-18
Minimum magnitude displayed is 2.5.

Coastal Water Temperatures

Place Temperature
No Stations Reporting

Nearby Weather Stations